sensor_id;sensor_type;location;lat;lon;timestamp;P1;durP1;ratioP1;P2;durP2;ratioP2
1414;SDS011;702;49.466;11.086;2024-01-07T00:01:53;16.30;;;13.10;;
1414;SDS011;702;49.466;11.086;2024-01-07T00:04:20;18.30;;;13.27;;
1414;SDS011;702;49.466;11.086;2024-01-07T00:06:48;19.37;;;13.00;;
1414;SDS011;702;49.466;11.086;2024-01-07T00:09:16;14.87;;;12.67;;
1414;SDS011;702;49.466;11.086;2024-01-07T00:11:43;19.03;;;13.03;;
1414;SDS011;702;49.466;11.086;2024-01-07T00:14:11;15.07;;;13.07;;
1414;SDS011;702;49.466;11.086;2024-01-07T00:16:39;13.20;;;11.80;;
1414;SDS011;702;49.466;11.086;2024-01-07T00:19:07;19.27;;;12.87;;
1414;SDS011;702;49.466;11.086;2024-01-07T00:21:34;17.87;;;13.63;;
1414;SDS011;702;49.466;11.086;2024-01-07T00:24:00;21.23;;;14.27;;
1414;SDS011;702;49.466;11.086;2024-01-07T00:26:29;18.80;;;13.33;;
1414;SDS011;702;49.466;11.086;2024-01-07T00:28:56;17.93;;;14.27;;
1414;SDS011;702;49.466;11.086;2024-01-07T00:31:23;16.10;;;13.10;;
1414;SDS011;702;49.466;11.086;2024-01-07T00:33:51;18.93;;;14.17;;
1414;SDS011;702;49.466;11.086;2024-01-07T00:36:18;16.60;;;12.63;;
1414;SDS011;702;49.466;11.086;2024-01-07T00:38:46;15.40;;;12.90;;
1414;SDS011;702;49.466;11.086;2024-01-07T00:41:13;19.63;;;12.50;;
1414;SDS011;702;49.466;11.086;2024-01-07T00:43:41;16.30;;;13.70;;
1414;SDS011;702;49.466;11.086;2024-01-07T00:46:09;15.80;;;12.93;;
1414;SDS011;702;49.466;11.086;2024-01-07T00:48:36;17.40;;;12.73;;
1414;SDS011;702;49.466;11.086;2024-01-07T00:51:04;18.00;;;13.10;;
1414;SDS011;702;49.466;11.086;2024-01-07T00:53:31;22.93;;;13.57;;
1414;SDS011;702;49.466;11.086;2024-01-07T00:55:58;16.77;;;13.10;;
1414;SDS011;702;49.466;11.086;2024-01-07T00:58:25;17.00;;;13.50;;
1414;SDS011;702;49.466;11.086;2024-01-07T01:00:54;18.80;;;14.13;;
1414;SDS011;702;49.466;11.086;2024-01-07T01:03:21;18.40;;;13.87;;
1414;SDS011;702;49.466;11.086;2024-01-07T01:05:49;18.80;;;13.87;;
1414;SDS011;702;49.466;11.086;2024-01-07T01:08:16;16.70;;;13.07;;
1414;SDS011;702;49.466;11.086;2024-01-07T01:10:43;17.20;;;12.37;;
1414;SDS011;702;49.466;11.086;2024-01-07T01:13:10;20.17;;;14.87;;
1414;SDS011;702;49.466;11.086;2024-01-07T01:15:38;17.40;;;14.00;;
1414;SDS011;702;49.466;11.086;2024-01-07T01:18:06;17.73;;;13.90;;
1414;SDS011;702;49.466;11.086;2024-01-07T01:20:34;18.07;;;13.53;;
1414;SDS011;702;49.466;11.086;2024-01-07T01:23:01;17.90;;;14.10;;
1414;SDS011;702;49.466;11.086;2024-01-07T01:25:28;18.57;;;14.60;;
1414;SDS011;702;49.466;11.086;2024-01-07T01:27:56;18.87;;;13.53;;
1414;SDS011;702;49.466;11.086;2024-01-07T01:30:23;19.33;;;13.80;;
1414;SDS011;702;49.466;11.086;2024-01-07T01:32:51;19.90;;;13.47;;
1414;SDS011;702;49.466;11.086;2024-01-07T01:35:20;18.43;;;13.30;;
1414;SDS011;702;49.466;11.086;2024-01-07T01:37:48;18.70;;;13.60;;
1414;SDS011;702;49.466;11.086;2024-01-07T01:40:16;16.97;;;12.40;;
1414;SDS011;702;49.466;11.086;2024-01-07T01:42:43;18.53;;;13.00;;
1414;SDS011;702;49.466;11.086;2024-01-07T01:45:11;18.47;;;13.93;;
1414;SDS011;702;49.466;11.086;2024-01-07T01:47:38;16.27;;;12.67;;
1414;SDS011;702;49.466;11.086;2024-01-07T01:50:06;21.60;;;15.30;;
1414;SDS011;702;49.466;11.086;2024-01-07T01:52:35;15.90;;;12.33;;
1414;SDS011;702;49.466;11.086;2024-01-07T01:55:03;17.37;;;13.03;;
1414;SDS011;702;49.466;11.086;2024-01-07T01:57:32;18.60;;;12.83;;
1414;SDS011;702;49.466;11.086;2024-01-07T02:00:01;21.80;;;14.63;;
1414;SDS011;702;49.466;11.086;2024-01-07T02:02:30;18.67;;;12.80;;
1414;SDS011;702;49.466;11.086;2024-01-07T02:04:59;18.47;;;13.43;;
1414;SDS011;702;49.466;11.086;2024-01-07T02:07:26;19.20;;;11.93;;
1414;SDS011;702;49.466;11.086;2024-01-07T02:09:56;19.33;;;12.27;;
1414;SDS011;702;49.466;11.086;2024-01-07T02:12:23;16.83;;;13.17;;
1414;SDS011;702;49.466;11.086;2024-01-07T02:14:50;16.27;;;13.20;;
1414;SDS011;702;49.466;11.086;2024-01-07T02:17:18;17.07;;;13.63;;
1414;SDS011;702;49.466;11.086;2024-01-07T02:19:46;16.50;;;12.33;;
1414;SDS011;702;49.466;11.086;2024-01-07T02:22:13;16.97;;;13.00;;
1414;SDS011;702;49.466;11.086;2024-01-07T02:24:42;19.93;;;13.97;;
1414;SDS011;702;49.466;11.086;2024-01-07T02:27:08;16.07;;;12.57;;
1414;SDS011;702;49.466;11.086;2024-01-07T02:29:38;17.47;;;12.87;;
1414;SDS011;702;49.466;11.086;2024-01-07T02:32:05;18.40;;;13.27;;
1414;SDS011;702;49.466;11.086;2024-01-07T02:34:33;17.17;;;13.47;;
1414;SDS011;702;49.466;11.086;2024-01-07T02:37:00;18.10;;;11.37;;
1414;SDS011;702;49.466;11.086;2024-01-07T02:39:27;18.10;;;13.03;;
1414;SDS011;702;49.466;11.086;2024-01-07T02:41:56;16.53;;;13.33;;
1414;SDS011;702;49.466;11.086;2024-01-07T02:44:23;13.27;;;10.40;;
1414;SDS011;702;49.466;11.086;2024-01-07T02:46:50;13.20;;;11.53;;
1414;SDS011;702;49.466;11.086;2024-01-07T02:49:18;12.77;;;10.10;;
1414;SDS011;702;49.466;11.086;2024-01-07T02:51:47;14.10;;;10.13;;
1414;SDS011;702;49.466;11.086;2024-01-07T02:54:15;14.23;;;9.27;;
1414;SDS011;702;49.466;11.086;2024-01-07T02:56:42;11.90;;;8.13;;
1414;SDS011;702;49.466;11.086;2024-01-07T02:59:11;11.67;;;9.03;;
1414;SDS011;702;49.466;11.086;2024-01-07T03:01:38;9.60;;;8.20;;
1414;SDS011;702;49.466;11.086;2024-01-07T03:04:09;11.50;;;8.40;;
1414;SDS011;702;49.466;11.086;2024-01-07T03:06:37;10.93;;;9.00;;
1414;SDS011;702;49.466;11.086;2024-01-07T03:09:04;13.57;;;8.70;;
1414;SDS011;702;49.466;11.086;2024-01-07T03:11:32;10.67;;;8.60;;
1414;SDS011;702;49.466;11.086;2024-01-07T03:14:00;9.37;;;7.60;;
1414;SDS011;702;49.466;11.086;2024-01-07T03:16:29;10.80;;;8.53;;
1414;SDS011;702;49.466;11.086;2024-01-07T03:18:56;11.27;;;7.70;;
1414;SDS011;702;49.466;11.086;2024-01-07T03:21:23;11.37;;;8.40;;
1414;SDS011;702;49.466;11.086;2024-01-07T03:23:51;10.40;;;8.20;;
1414;SDS011;702;49.466;11.086;2024-01-07T03:26:19;10.87;;;6.97;;
1414;SDS011;702;49.466;11.086;2024-01-07T03:28:47;11.90;;;8.40;;
1414;SDS011;702;49.466;11.086;2024-01-07T03:31:15;10.27;;;7.63;;
1414;SDS011;702;49.466;11.086;2024-01-07T03:33:48;14.07;;;7.83;;
1414;SDS011;702;49.466;11.086;2024-01-07T03:36:15;12.83;;;8.07;;
1414;SDS011;702;49.466;11.086;2024-01-07T03:38:42;11.20;;;8.20;;
1414;SDS011;702;49.466;11.086;2024-01-07T03:41:15;10.43;;;8.33;;
1414;SDS011;702;49.466;11.086;2024-01-07T03:43:44;10.53;;;8.40;;
1414;SDS011;702;49.466;11.086;2024-01-07T03:46:12;12.63;;;8.37;;
1414;SDS011;702;49.466;11.086;2024-01-07T03:48:41;9.83;;;7.47;;
1414;SDS011;702;49.466;11.086;2024-01-07T03:51:10;11.47;;;9.57;;
1414;SDS011;702;49.466;11.086;2024-01-07T03:53:37;12.27;;;8.40;;
1414;SDS011;702;49.466;11.086;2024-01-07T03:56:05;12.50;;;8.50;;
1414;SDS011;702;49.466;11.086;2024-01-07T03:58:32;12.53;;;8.73;;
1414;SDS011;702;49.466;11.086;2024-01-07T04:01:01;10.47;;;8.40;;
1414;SDS011;702;49.466;11.086;2024-01-07T04:03:28;12.97;;;9.60;;
1414;SDS011;702;49.466;11.086;2024-01-07T04:05:55;12.77;;;9.50;;
1414;SDS011;702;49.466;11.086;2024-01-07T04:08:24;11.10;;;7.70;;
1414;SDS011;702;49.466;11.086;2024-01-07T04:10:51;12.50;;;9.23;;
1414;SDS011;702;49.466;11.086;2024-01-07T04:13:18;12.50;;;7.93;;
1414;SDS011;702;49.466;11.086;2024-01-07T04:15:45;12.07;;;8.90;;
1414;SDS011;702;49.466;11.086;2024-01-07T04:18:13;13.10;;;8.70;;
1414;SDS011;702;49.466;11.086;2024-01-07T04:20:40;11.23;;;8.07;;
1414;SDS011;702;49.466;11.086;2024-01-07T04:23:07;12.10;;;8.07;;
1414;SDS011;702;49.466;11.086;2024-01-07T04:25:37;12.13;;;8.10;;
1414;SDS011;702;49.466;11.086;2024-01-07T04:28:05;11.70;;;8.60;;
1414;SDS011;702;49.466;11.086;2024-01-07T04:30:33;12.27;;;8.27;;
1414;SDS011;702;49.466;11.086;2024-01-07T04:33:00;12.00;;;7.87;;
1414;SDS011;702;49.466;11.086;2024-01-07T04:35:27;11.23;;;7.20;;
1414;SDS011;702;49.466;11.086;2024-01-07T04:37:54;9.43;;;7.10;;
1414;SDS011;702;49.466;11.086;2024-01-07T04:40:22;9.30;;;7.20;;
1414;SDS011;702;49.466;11.086;2024-01-07T04:42:50;9.97;;;7.83;;
1414;SDS011;702;49.466;11.086;2024-01-07T04:45:18;11.30;;;7.50;;
1414;SDS011;702;49.466;11.086;2024-01-07T04:47:46;11.00;;;7.73;;
1414;SDS011;702;49.466;11.086;2024-01-07T04:50:13;10.83;;;7.70;;
1414;SDS011;702;49.466;11.086;2024-01-07T04:52:44;13.10;;;8.63;;
1414;SDS011;702;49.466;11.086;2024-01-07T04:55:12;10.73;;;7.50;;
1414;SDS011;702;49.466;11.086;2024-01-07T04:57:39;11.83;;;7.60;;
1414;SDS011;702;49.466;11.086;2024-01-07T05:00:08;10.20;;;7.30;;
1414;SDS011;702;49.466;11.086;2024-01-07T05:02:37;13.17;;;8.60;;
1414;SDS011;702;49.466;11.086;2024-01-07T05:05:04;10.50;;;7.20;;
1414;SDS011;702;49.466;11.086;2024-01-07T05:07:34;11.33;;;8.23;;
1414;SDS011;702;49.466;11.086;2024-01-07T05:10:04;10.40;;;7.00;;
1414;SDS011;702;49.466;11.086;2024-01-07T05:12:32;7.70;;;5.83;;
1414;SDS011;702;49.466;11.086;2024-01-07T05:15:00;7.83;;;5.90;;
1414;SDS011;702;49.466;11.086;2024-01-07T05:17:30;7.23;;;5.90;;
1414;SDS011;702;49.466;11.086;2024-01-07T05:19:57;6.40;;;5.50;;
1414;SDS011;702;49.466;11.086;2024-01-07T05:22:24;10.43;;;6.47;;
1414;SDS011;702;49.466;11.086;2024-01-07T05:24:51;10.60;;;6.43;;
1414;SDS011;702;49.466;11.086;2024-01-07T05:27:19;9.10;;;6.17;;
1414;SDS011;702;49.466;11.086;2024-01-07T05:29:46;7.20;;;5.90;;
1414;SDS011;702;49.466;11.086;2024-01-07T05:32:13;8.47;;;5.90;;
1414;SDS011;702;49.466;11.086;2024-01-07T05:34:42;8.50;;;6.07;;
1414;SDS011;702;49.466;11.086;2024-01-07T05:37:09;7.10;;;5.93;;
1414;SDS011;702;49.466;11.086;2024-01-07T05:39:36;9.10;;;5.80;;
1414;SDS011;702;49.466;11.086;2024-01-07T05:42:04;10.13;;;6.17;;
1414;SDS011;702;49.466;11.086;2024-01-07T05:44:32;8.93;;;6.00;;
1414;SDS011;702;49.466;11.086;2024-01-07T05:46:59;7.87;;;5.63;;
1414;SDS011;702;49.466;11.086;2024-01-07T05:49:27;8.07;;;6.23;;
1414;SDS011;702;49.466;11.086;2024-01-07T05:51:56;10.23;;;6.70;;
1414;SDS011;702;49.466;11.086;2024-01-07T05:54:23;8.20;;;5.83;;
1414;SDS011;702;49.466;11.086;2024-01-07T05:56:51;7.87;;;5.50;;
1414;SDS011;702;49.466;11.086;2024-01-07T05:59:19;8.00;;;5.80;;
1414;SDS011;702;49.466;11.086;2024-01-07T06:01:46;8.20;;;6.10;;
1414;SDS011;702;49.466;11.086;2024-01-07T06:04:14;9.70;;;6.00;;
1414;SDS011;702;49.466;11.086;2024-01-07T06:06:41;6.47;;;5.70;;
1414;SDS011;702;49.466;11.086;2024-01-07T06:09:11;7.30;;;5.30;;
1414;SDS011;702;49.466;11.086;2024-01-07T06:11:38;9.93;;;6.70;;
1414;SDS011;702;49.466;11.086;2024-01-07T06:14:05;9.77;;;5.83;;
1414;SDS011;702;49.466;11.086;2024-01-07T06:16:33;9.30;;;6.03;;
1414;SDS011;702;49.466;11.086;2024-01-07T06:19:00;7.83;;;5.93;;
1414;SDS011;702;49.466;11.086;2024-01-07T06:21:27;7.57;;;5.47;;
1414;SDS011;702;49.466;11.086;2024-01-07T06:23:54;11.30;;;6.67;;
1414;SDS011;702;49.466;11.086;2024-01-07T06:26:23;11.70;;;7.83;;
1414;SDS011;702;49.466;11.086;2024-01-07T06:28:50;10.33;;;7.03;;
1414;SDS011;702;49.466;11.086;2024-01-07T06:31:17;7.90;;;6.20;;
1414;SDS011;702;49.466;11.086;2024-01-07T06:33:44;10.03;;;6.20;;
1414;SDS011;702;49.466;11.086;2024-01-07T06:36:12;9.30;;;7.47;;
1414;SDS011;702;49.466;11.086;2024-01-07T06:38:39;14.37;;;7.00;;
1414;SDS011;702;49.466;11.086;2024-01-07T06:41:06;13.00;;;7.93;;
1414;SDS011;702;49.466;11.086;2024-01-07T06:43:36;12.10;;;7.97;;
1414;SDS011;702;49.466;11.086;2024-01-07T06:46:03;10.33;;;7.50;;
1414;SDS011;702;49.466;11.086;2024-01-07T06:48:31;12.10;;;8.60;;
1414;SDS011;702;49.466;11.086;2024-01-07T06:50:58;12.00;;;8.00;;
1414;SDS011;702;49.466;11.086;2024-01-07T06:53:28;9.63;;;7.23;;
1414;SDS011;702;49.466;11.086;2024-01-07T06:55:56;11.57;;;8.23;;
1414;SDS011;702;49.466;11.086;2024-01-07T06:58:23;12.63;;;8.60;;
1414;SDS011;702;49.466;11.086;2024-01-07T07:00:52;12.10;;;8.07;;
1414;SDS011;702;49.466;11.086;2024-01-07T07:03:20;12.20;;;7.97;;
1414;SDS011;702;49.466;11.086;2024-01-07T07:05:47;14.40;;;9.13;;
1414;SDS011;702;49.466;11.086;2024-01-07T07:08:14;11.13;;;8.20;;
1414;SDS011;702;49.466;11.086;2024-01-07T07:10:42;11.70;;;7.80;;
1414;SDS011;702;49.466;11.086;2024-01-07T07:13:10;14.07;;;7.93;;
1414;SDS011;702;49.466;11.086;2024-01-07T07:15:38;14.77;;;8.47;;
1414;SDS011;702;49.466;11.086;2024-01-07T07:18:07;13.60;;;8.37;;
1414;SDS011;702;49.466;11.086;2024-01-07T07:20:37;12.60;;;8.50;;
1414;SDS011;702;49.466;11.086;2024-01-07T07:23:05;13.90;;;9.57;;
1414;SDS011;702;49.466;11.086;2024-01-07T07:25:32;12.77;;;8.70;;
1414;SDS011;702;49.466;11.086;2024-01-07T07:27:59;15.07;;;9.43;;
1414;SDS011;702;49.466;11.086;2024-01-07T07:30:26;15.23;;;9.50;;
1414;SDS011;702;49.466;11.086;2024-01-07T07:32:54;11.93;;;8.97;;
1414;SDS011;702;49.466;11.086;2024-01-07T07:35:23;12.20;;;8.70;;
1414;SDS011;702;49.466;11.086;2024-01-07T07:37:54;14.80;;;9.63;;
1414;SDS011;702;49.466;11.086;2024-01-07T07:40:21;14.57;;;10.10;;
1414;SDS011;702;49.466;11.086;2024-01-07T07:42:49;13.03;;;10.03;;
1414;SDS011;702;49.466;11.086;2024-01-07T07:45:16;14.70;;;9.60;;
1414;SDS011;702;49.466;11.086;2024-01-07T07:47:44;14.43;;;9.87;;
1414;SDS011;702;49.466;11.086;2024-01-07T07:50:11;13.27;;;9.80;;
1414;SDS011;702;49.466;11.086;2024-01-07T07:52:40;15.27;;;10.90;;
1414;SDS011;702;49.466;11.086;2024-01-07T07:55:09;14.10;;;9.43;;
1414;SDS011;702;49.466;11.086;2024-01-07T07:57:37;15.30;;;10.23;;
1414;SDS011;702;49.466;11.086;2024-01-07T08:00:06;13.77;;;9.30;;
1414;SDS011;702;49.466;11.086;2024-01-07T08:02:37;17.30;;;10.67;;
1414;SDS011;702;49.466;11.086;2024-01-07T08:05:06;13.40;;;10.17;;
1414;SDS011;702;49.466;11.086;2024-01-07T08:07:33;15.03;;;10.13;;
1414;SDS011;702;49.466;11.086;2024-01-07T08:10:02;14.50;;;9.47;;
1414;SDS011;702;49.466;11.086;2024-01-07T08:12:34;13.43;;;9.20;;
1414;SDS011;702;49.466;11.086;2024-01-07T08:15:01;15.77;;;10.20;;
1414;SDS011;702;49.466;11.086;2024-01-07T08:17:29;15.00;;;9.03;;
1414;SDS011;702;49.466;11.086;2024-01-07T08:19:56;14.83;;;10.27;;
1414;SDS011;702;49.466;11.086;2024-01-07T08:22:24;12.90;;;10.40;;
1414;SDS011;702;49.466;11.086;2024-01-07T08:24:52;14.00;;;9.97;;
1414;SDS011;702;49.466;11.086;2024-01-07T08:27:21;12.73;;;9.47;;
1414;SDS011;702;49.466;11.086;2024-01-07T08:29:48;12.73;;;9.37;;
1414;SDS011;702;49.466;11.086;2024-01-07T08:32:15;14.10;;;8.87;;
1414;SDS011;702;49.466;11.086;2024-01-07T08:34:43;14.63;;;9.50;;
1414;SDS011;702;49.466;11.086;2024-01-07T08:37:10;16.00;;;9.13;;
1414;SDS011;702;49.466;11.086;2024-01-07T08:39:37;14.50;;;10.30;;
1414;SDS011;702;49.466;11.086;2024-01-07T08:42:05;14.70;;;8.90;;
1414;SDS011;702;49.466;11.086;2024-01-07T08:44:34;15.00;;;9.87;;
1414;SDS011;702;49.466;11.086;2024-01-07T08:47:01;15.10;;;9.90;;
1414;SDS011;702;49.466;11.086;2024-01-07T08:49:29;13.23;;;10.10;;
1414;SDS011;702;49.466;11.086;2024-01-07T08:51:58;15.07;;;11.00;;
1414;SDS011;702;49.466;11.086;2024-01-07T08:54:25;13.33;;;10.23;;
1414;SDS011;702;49.466;11.086;2024-01-07T08:56:52;12.67;;;9.50;;
1414;SDS011;702;49.466;11.086;2024-01-07T08:59:19;13.23;;;9.37;;
1414;SDS011;702;49.466;11.086;2024-01-07T09:01:48;14.40;;;10.50;;
1414;SDS011;702;49.466;11.086;2024-01-07T09:04:16;14.13;;;11.10;;
1414;SDS011;702;49.466;11.086;2024-01-07T09:06:44;13.47;;;9.43;;
1414;SDS011;702;49.466;11.086;2024-01-07T09:09:11;16.83;;;10.83;;
1414;SDS011;702;49.466;11.086;2024-01-07T09:11:39;15.60;;;10.33;;
1414;SDS011;702;49.466;11.086;2024-01-07T09:14:06;16.37;;;9.93;;
1414;SDS011;702;49.466;11.086;2024-01-07T09:16:34;20.73;;;7.93;;
1414;SDS011;702;49.466;11.086;2024-01-07T09:19:04;17.27;;;11.20;;
1414;SDS011;702;49.466;11.086;2024-01-07T09:21:34;17.07;;;10.93;;
1414;SDS011;702;49.466;11.086;2024-01-07T09:24:02;16.07;;;10.50;;
1414;SDS011;702;49.466;11.086;2024-01-07T09:26:30;13.00;;;7.97;;
1414;SDS011;702;49.466;11.086;2024-01-07T09:28:59;15.47;;;11.23;;
1414;SDS011;702;49.466;11.086;2024-01-07T09:31:27;19.77;;;11.87;;
1414;SDS011;702;49.466;11.086;2024-01-07T09:33:54;16.37;;;11.93;;
1414;SDS011;702;49.466;11.086;2024-01-07T09:36:23;15.03;;;11.67;;
1414;SDS011;702;49.466;11.086;2024-01-07T09:38:50;17.73;;;11.90;;
1414;SDS011;702;49.466;11.086;2024-01-07T09:41:19;18.50;;;13.17;;
1414;SDS011;702;49.466;11.086;2024-01-07T09:43:46;18.97;;;11.30;;
1414;SDS011;702;49.466;11.086;2024-01-07T09:46:14;16.80;;;10.77;;
1414;SDS011;702;49.466;11.086;2024-01-07T09:48:42;19.43;;;12.17;;
1414;SDS011;702;49.466;11.086;2024-01-07T09:51:09;16.87;;;12.57;;
1414;SDS011;702;49.466;11.086;2024-01-07T09:53:39;17.03;;;11.87;;
1414;SDS011;702;49.466;11.086;2024-01-07T09:56:08;17.83;;;11.13;;
1414;SDS011;702;49.466;11.086;2024-01-07T09:58:41;17.50;;;11.60;;
1414;SDS011;702;49.466;11.086;2024-01-07T10:01:09;19.70;;;11.97;;
1414;SDS011;702;49.466;11.086;2024-01-07T10:03:36;16.33;;;11.50;;
1414;SDS011;702;49.466;11.086;2024-01-07T10:06:04;13.83;;;10.03;;
1414;SDS011;702;49.466;11.086;2024-01-07T10:08:32;21.33;;;13.63;;
1414;SDS011;702;49.466;11.086;2024-01-07T10:11:00;19.20;;;11.53;;
1414;SDS011;702;49.466;11.086;2024-01-07T10:13:29;15.67;;;11.13;;
1414;SDS011;702;49.466;11.086;2024-01-07T10:15:57;21.30;;;11.33;;
1414;SDS011;702;49.466;11.086;2024-01-07T10:18:25;19.03;;;12.93;;
1414;SDS011;702;49.466;11.086;2024-01-07T10:20:52;14.43;;;10.50;;
1414;SDS011;702;49.466;11.086;2024-01-07T10:23:20;16.57;;;11.23;;
1414;SDS011;702;49.466;11.086;2024-01-07T10:25:48;20.20;;;11.90;;
1414;SDS011;702;49.466;11.086;2024-01-07T10:28:16;17.50;;;11.90;;
1414;SDS011;702;49.466;11.086;2024-01-07T10:30:47;20.47;;;11.97;;
1414;SDS011;702;49.466;11.086;2024-01-07T10:33:16;18.00;;;10.50;;
1414;SDS011;702;49.466;11.086;2024-01-07T10:35:45;19.90;;;11.60;;
1414;SDS011;702;49.466;11.086;2024-01-07T10:38:19;21.03;;;13.13;;
1414;SDS011;702;49.466;11.086;2024-01-07T10:40:48;18.77;;;12.40;;
1414;SDS011;702;49.466;11.086;2024-01-07T10:43:20;18.13;;;12.43;;
1414;SDS011;702;49.466;11.086;2024-01-07T10:45:48;19.73;;;12.33;;
1414;SDS011;702;49.466;11.086;2024-01-07T10:48:17;16.83;;;11.97;;
1414;SDS011;702;49.466;11.086;2024-01-07T10:50:45;17.83;;;12.23;;
1414;SDS011;702;49.466;11.086;2024-01-07T10:53:17;16.93;;;11.90;;
1414;SDS011;702;49.466;11.086;2024-01-07T10:55:51;16.97;;;11.20;;
1414;SDS011;702;49.466;11.086;2024-01-07T10:58:27;16.90;;;11.80;;
1414;SDS011;702;49.466;11.086;2024-01-07T11:00:57;17.27;;;11.93;;
1414;SDS011;702;49.466;11.086;2024-01-07T11:03:29;16.57;;;12.60;;
1414;SDS011;702;49.466;11.086;2024-01-07T11:06:06;18.77;;;12.40;;
1414;SDS011;702;49.466;11.086;2024-01-07T11:08:40;18.70;;;11.80;;
1414;SDS011;702;49.466;11.086;2024-01-07T11:11:14;18.27;;;10.90;;
1414;SDS011;702;49.466;11.086;2024-01-07T11:13:47;21.00;;;11.90;;
1414;SDS011;702;49.466;11.086;2024-01-07T11:16:16;17.70;;;12.00;;
1414;SDS011;702;49.466;11.086;2024-01-07T11:19:12;20.10;;;12.10;;
1414;SDS011;702;49.466;11.086;2024-01-07T11:21:40;16.30;;;11.43;;
1414;SDS011;702;49.466;11.086;2024-01-07T11:24:07;16.77;;;11.73;;
1414;SDS011;702;49.466;11.086;2024-01-07T11:26:35;20.20;;;13.30;;
1414;SDS011;702;49.466;11.086;2024-01-07T11:29:05;16.23;;;12.50;;
1414;SDS011;702;49.466;11.086;2024-01-07T11:31:43;16.80;;;12.03;;
1414;SDS011;702;49.466;11.086;2024-01-07T11:37:06;15.23;;;11.10;;
1414;SDS011;702;49.466;11.086;2024-01-07T11:39:37;13.60;;;9.83;;
1414;SDS011;702;49.466;11.086;2024-01-07T11:42:04;17.67;;;10.40;;
1414;SDS011;702;49.466;11.086;2024-01-07T11:44:36;19.37;;;12.70;;
1414;SDS011;702;49.466;11.086;2024-01-07T11:47:04;15.40;;;10.60;;
1414;SDS011;702;49.466;11.086;2024-01-07T11:49:31;17.17;;;10.97;;
1414;SDS011;702;49.466;11.086;2024-01-07T11:51:59;15.23;;;10.33;;
1414;SDS011;702;49.466;11.086;2024-01-07T11:54:27;17.33;;;10.50;;
1414;SDS011;702;49.466;11.086;2024-01-07T11:56:55;19.23;;;10.90;;
1414;SDS011;702;49.466;11.086;2024-01-07T11:59:23;17.77;;;11.40;;
1414;SDS011;702;49.466;11.086;2024-01-07T12:01:51;13.93;;;9.83;;
1414;SDS011;702;49.466;11.086;2024-01-07T12:04:21;12.93;;;10.00;;
1414;SDS011;702;49.466;11.086;2024-01-07T12:06:48;14.43;;;10.27;;
1414;SDS011;702;49.466;11.086;2024-01-07T12:09:16;15.17;;;10.17;;
1414;SDS011;702;49.466;11.086;2024-01-07T12:11:43;12.97;;;8.93;;
1414;SDS011;702;49.466;11.086;2024-01-07T12:14:11;11.03;;;8.70;;
1414;SDS011;702;49.466;11.086;2024-01-07T12:16:38;14.10;;;9.40;;
1414;SDS011;702;49.466;11.086;2024-01-07T12:19:07;13.03;;;9.07;;
1414;SDS011;702;49.466;11.086;2024-01-07T12:21:35;14.10;;;8.87;;
1414;SDS011;702;49.466;11.086;2024-01-07T12:24:03;12.80;;;9.00;;
1414;SDS011;702;49.466;11.086;2024-01-07T12:26:31;10.83;;;8.10;;
1414;SDS011;702;49.466;11.086;2024-01-07T12:28:59;15.90;;;8.97;;
1414;SDS011;702;49.466;11.086;2024-01-07T12:31:29;13.93;;;9.23;;
1414;SDS011;702;49.466;11.086;2024-01-07T12:33:57;14.80;;;9.10;;
1414;SDS011;702;49.466;11.086;2024-01-07T12:36:26;20.27;;;9.87;;
1414;SDS011;702;49.466;11.086;2024-01-07T12:38:53;12.80;;;7.93;;
1414;SDS011;702;49.466;11.086;2024-01-07T12:41:21;14.53;;;9.10;;
1414;SDS011;702;49.466;11.086;2024-01-07T12:43:48;13.27;;;9.57;;
1414;SDS011;702;49.466;11.086;2024-01-07T12:46:17;10.90;;;8.40;;
1414;SDS011;702;49.466;11.086;2024-01-07T12:48:44;13.90;;;9.67;;
1414;SDS011;702;49.466;11.086;2024-01-07T12:51:11;12.63;;;9.80;;
1414;SDS011;702;49.466;11.086;2024-01-07T12:53:40;12.67;;;8.97;;
1414;SDS011;702;49.466;11.086;2024-01-07T12:56:07;16.63;;;9.00;;
1414;SDS011;702;49.466;11.086;2024-01-07T12:58:34;16.67;;;9.00;;
1414;SDS011;702;49.466;11.086;2024-01-07T13:01:01;9.97;;;7.70;;
1414;SDS011;702;49.466;11.086;2024-01-07T13:03:29;10.90;;;8.03;;
1414;SDS011;702;49.466;11.086;2024-01-07T13:05:56;11.43;;;8.17;;
1414;SDS011;702;49.466;11.086;2024-01-07T13:08:23;12.10;;;8.57;;
1414;SDS011;702;49.466;11.086;2024-01-07T13:10:54;15.17;;;8.50;;
1414;SDS011;702;49.466;11.086;2024-01-07T13:13:21;13.47;;;8.30;;
1414;SDS011;702;49.466;11.086;2024-01-07T13:15:49;12.47;;;7.50;;
1414;SDS011;702;49.466;11.086;2024-01-07T13:18:16;11.37;;;8.63;;
1414;SDS011;702;49.466;11.086;2024-01-07T13:20:44;11.70;;;8.97;;
1414;SDS011;702;49.466;11.086;2024-01-07T13:23:11;12.17;;;8.40;;
1414;SDS011;702;49.466;11.086;2024-01-07T13:25:39;11.20;;;8.10;;
1414;SDS011;702;49.466;11.086;2024-01-07T13:28:07;12.40;;;8.27;;
1414;SDS011;702;49.466;11.086;2024-01-07T13:30:37;11.40;;;7.97;;
1414;SDS011;702;49.466;11.086;2024-01-07T13:33:05;12.10;;;7.33;;
1414;SDS011;702;49.466;11.086;2024-01-07T13:35:33;10.67;;;7.07;;
1414;SDS011;702;49.466;11.086;2024-01-07T13:38:01;13.57;;;7.93;;
1414;SDS011;702;49.466;11.086;2024-01-07T13:40:28;11.13;;;7.83;;
1414;SDS011;702;49.466;11.086;2024-01-07T13:42:55;14.80;;;9.07;;
1414;SDS011;702;49.466;11.086;2024-01-07T13:45:24;11.43;;;7.47;;
1414;SDS011;702;49.466;11.086;2024-01-07T13:47:52;8.03;;;6.70;;
1414;SDS011;702;49.466;11.086;2024-01-07T13:50:20;10.00;;;7.30;;
1414;SDS011;702;49.466;11.086;2024-01-07T13:52:47;12.30;;;7.00;;
1414;SDS011;702;49.466;11.086;2024-01-07T13:55:15;8.50;;;7.37;;
1414;SDS011;702;49.466;11.086;2024-01-07T13:57:42;10.40;;;7.30;;
1414;SDS011;702;49.466;11.086;2024-01-07T14:00:10;7.73;;;6.80;;
1414;SDS011;702;49.466;11.086;2024-01-07T14:02:45;11.30;;;8.43;;
1414;SDS011;702;49.466;11.086;2024-01-07T14:05:12;9.20;;;6.00;;
1414;SDS011;702;49.466;11.086;2024-01-07T14:07:39;10.17;;;7.73;;
1414;SDS011;702;49.466;11.086;2024-01-07T14:10:07;10.80;;;7.17;;
1414;SDS011;702;49.466;11.086;2024-01-07T14:12:34;7.80;;;6.27;;
1414;SDS011;702;49.466;11.086;2024-01-07T14:15:04;8.20;;;6.63;;
1414;SDS011;702;49.466;11.086;2024-01-07T14:17:33;8.27;;;6.70;;
1414;SDS011;702;49.466;11.086;2024-01-07T14:20:01;9.63;;;7.60;;
1414;SDS011;702;49.466;11.086;2024-01-07T14:22:30;8.43;;;6.20;;
1414;SDS011;702;49.466;11.086;2024-01-07T14:24:57;9.53;;;7.07;;
1414;SDS011;702;49.466;11.086;2024-01-07T14:27:24;10.30;;;6.87;;
1414;SDS011;702;49.466;11.086;2024-01-07T14:29:52;9.97;;;6.50;;
1414;SDS011;702;49.466;11.086;2024-01-07T14:32:19;7.53;;;6.27;;
1414;SDS011;702;49.466;11.086;2024-01-07T14:34:47;7.70;;;6.50;;
1414;SDS011;702;49.466;11.086;2024-01-07T14:37:16;10.03;;;5.57;;
1414;SDS011;702;49.466;11.086;2024-01-07T14:39:44;8.07;;;5.37;;
1414;SDS011;702;49.466;11.086;2024-01-07T14:42:12;7.33;;;6.03;;
1414;SDS011;702;49.466;11.086;2024-01-07T14:44:39;9.90;;;6.63;;
1414;SDS011;702;49.466;11.086;2024-01-07T14:47:07;8.03;;;5.97;;
1414;SDS011;702;49.466;11.086;2024-01-07T14:49:34;9.93;;;6.30;;
1414;SDS011;702;49.466;11.086;2024-01-07T14:52:01;9.37;;;6.23;;
1414;SDS011;702;49.466;11.086;2024-01-07T14:54:30;9.33;;;7.47;;
1414;SDS011;702;49.466;11.086;2024-01-07T14:57:00;7.97;;;6.10;;
1414;SDS011;702;49.466;11.086;2024-01-07T14:59:27;11.00;;;6.73;;
1414;SDS011;702;49.466;11.086;2024-01-07T15:01:54;10.00;;;6.90;;
1414;SDS011;702;49.466;11.086;2024-01-07T15:04:22;9.43;;;7.00;;
1414;SDS011;702;49.466;11.086;2024-01-07T15:06:49;8.60;;;6.50;;